Boyd, MT (59013)

11:16 AM MDT on August 21, 2017 (GMT -0600)
NW Joliet,MT | | Change Station

Elev 4160 ft 45.50 °N, 109.01 °W | Updated 5 seconds ago

Clear
Clear
72.1 °F
Feels Like 73 °F
N
8.4
Wind Variable Wind from North
Gusts 18.1 mph

Today
High -- | Low -- °F
--% Chance of Precip.
Yesterday
High -- | Low -- °F
Precip. -- in
Pressure 30.09 in
Visibility 10.0 miles
Clouds Few 20000 ft
Heat Index 73 °F
Dew Point 13 °F
Humidity 10%
Rainfall 0.00 in
Snow Depth Not available.
6:24 AM 8:13 PM
Waning Crescent, 0% visible
METAR KBIL 211653Z VRB04KT 10SM FEW200 22/01 A3018 RMK AO2 SLP190 T02220006
Pressure 30.09 in
Visibility 10.0 miles
Clouds Few 20000 ft
Heat Index 73 °F
Dew Point 13 °F
Humidity 10%
Rainfall 0.00 in
Snow Depth Not available.
6:24 AM 8:13 PM
Waning Crescent, 0% visible
METAR KBIL 211653Z VRB04KT 10SM FEW200 22/01 A3018 RMK AO2 SLP190 T02220006

Get Severe Weather Alerts

Thanks for signing up!

Be on the lookout for a verification email in your inbox.

You'll start receiving the daily forecast at 6 AM.

×

10-Day Weather Forecast

Almanac

Astronomy

Aug. 21, 2017 Rise Set
Actual Time
Civil Twilight
Nautical Twilight
Astronomical Twilight
Moon
Length of Visible Light
Length of Day
Tomorrow will be .
, % of the Moon is Illuminated

Today's Extremes

State Highs State Lows

Community

WunderPhotos

Category 6

Welcome to Category 6. This is the collective home for Weather Underground's featured writeups by Dr. Jeff Masters (right), Bob Henson (left), Chris Burt, and other regular contributors.

Nearby

Air Quality

  Air Quality AQ Index Pollutant
Not available.

Snow Depth

Station Depth Elevation

Earthquake Activity

City Distance Mag. Time & Date
Minimum magnitude displayed is 2.5.

Coastal Water Temperatures

Place Temperature

Stations

Nearby Weather Stations

Station Location Temp. Windchill Dew Point Humidity Wind Precip. Elev Updated Type
                   

Watches & Warnings

There are currently no watches in effect.